sensor_id;sensor_type;location;lat;lon;timestamp;P1;durP1;ratioP1;P2;durP2;ratioP2
12469;SDS011;36499;46.484;13.832;2024-03-02T00:01:34;6.50;;;2.97;;
12469;SDS011;36499;46.484;13.832;2024-03-02T00:04:04;4.83;;;2.57;;
12469;SDS011;36499;46.484;13.832;2024-03-02T00:06:32;5.63;;;2.93;;
12469;SDS011;36499;46.484;13.832;2024-03-02T00:08:59;4.63;;;2.80;;
12469;SDS011;36499;46.484;13.832;2024-03-02T00:11:26;8.30;;;2.77;;
12469;SDS011;36499;46.484;13.832;2024-03-02T00:13:53;5.37;;;2.63;;
12469;SDS011;36499;46.484;13.832;2024-03-02T00:16:20;7.03;;;2.77;;
12469;SDS011;36499;46.484;13.832;2024-03-02T00:18:49;7.13;;;2.80;;
12469;SDS011;36499;46.484;13.832;2024-03-02T00:21:17;6.23;;;2.63;;
12469;SDS011;36499;46.484;13.832;2024-03-02T00:23:47;5.63;;;2.57;;
12469;SDS011;36499;46.484;13.832;2024-03-02T00:26:15;4.43;;;2.60;;
12469;SDS011;36499;46.484;13.832;2024-03-02T00:28:42;6.20;;;2.90;;
12469;SDS011;36499;46.484;13.832;2024-03-02T00:31:11;3.30;;;2.37;;
12469;SDS011;36499;46.484;13.832;2024-03-02T00:33:40;4.17;;;2.50;;
12469;SDS011;36499;46.484;13.832;2024-03-02T00:36:08;4.23;;;2.40;;
12469;SDS011;36499;46.484;13.832;2024-03-02T00:38:42;4.10;;;2.10;;
12469;SDS011;36499;46.484;13.832;2024-03-02T00:41:14;5.50;;;2.87;;
12469;SDS011;36499;46.484;13.832;2024-03-02T00:43:44;14.83;;;3.00;;
12469;SDS011;36499;46.484;13.832;2024-03-02T00:46:15;5.27;;;3.23;;
12469;SDS011;36499;46.484;13.832;2024-03-02T00:51:29;5.60;;;2.80;;
12469;SDS011;36499;46.484;13.832;2024-03-02T00:53:59;4.10;;;2.73;;
12469;SDS011;36499;46.484;13.832;2024-03-02T00:56:29;5.30;;;2.70;;
12469;SDS011;36499;46.484;13.832;2024-03-02T00:58:57;4.37;;;2.60;;
12469;SDS011;36499;46.484;13.832;2024-03-02T01:01:24;4.73;;;2.50;;
12469;SDS011;36499;46.484;13.832;2024-03-02T01:03:50;5.77;;;2.50;;
12469;SDS011;36499;46.484;13.832;2024-03-02T01:06:18;4.77;;;3.00;;
12469;SDS011;36499;46.484;13.832;2024-03-02T01:08:45;5.17;;;3.57;;
12469;SDS011;36499;46.484;13.832;2024-03-02T01:11:17;6.47;;;3.97;;
12469;SDS011;36499;46.484;13.832;2024-03-02T01:13:45;8.87;;;3.80;;
12469;SDS011;36499;46.484;13.832;2024-03-02T01:16:12;8.20;;;3.03;;
12469;SDS011;36499;46.484;13.832;2024-03-02T01:18:40;5.20;;;2.50;;
12469;SDS011;36499;46.484;13.832;2024-03-02T01:21:08;4.13;;;2.37;;
12469;SDS011;36499;46.484;13.832;2024-03-02T01:23:35;6.50;;;2.43;;
12469;SDS011;36499;46.484;13.832;2024-03-02T01:26:03;4.53;;;2.30;;
12469;SDS011;36499;46.484;13.832;2024-03-02T01:28:31;5.00;;;2.33;;
12469;SDS011;36499;46.484;13.832;2024-03-02T01:30:58;3.20;;;1.90;;
12469;SDS011;36499;46.484;13.832;2024-03-02T01:33:25;3.30;;;2.07;;
12469;SDS011;36499;46.484;13.832;2024-03-02T01:35:52;4.20;;;2.30;;
12469;SDS011;36499;46.484;13.832;2024-03-02T01:38:18;5.73;;;2.33;;
12469;SDS011;36499;46.484;13.832;2024-03-02T01:40:45;9.63;;;2.50;;
12469;SDS011;36499;46.484;13.832;2024-03-02T01:43:12;3.70;;;2.20;;
12469;SDS011;36499;46.484;13.832;2024-03-02T01:45:40;7.87;;;2.40;;
12469;SDS011;36499;46.484;13.832;2024-03-02T01:48:07;4.67;;;2.63;;
12469;SDS011;36499;46.484;13.832;2024-03-02T01:50:34;2.83;;;2.07;;
12469;SDS011;36499;46.484;13.832;2024-03-02T01:53:01;5.30;;;2.70;;
12469;SDS011;36499;46.484;13.832;2024-03-02T01:55:28;9.00;;;2.87;;
12469;SDS011;36499;46.484;13.832;2024-03-02T01:57:55;6.10;;;2.70;;
12469;SDS011;36499;46.484;13.832;2024-03-02T02:00:23;4.37;;;3.07;;
12469;SDS011;36499;46.484;13.832;2024-03-02T02:02:52;7.73;;;3.50;;
12469;SDS011;36499;46.484;13.832;2024-03-02T02:05:19;4.90;;;3.17;;
12469;SDS011;36499;46.484;13.832;2024-03-02T02:07:46;4.00;;;3.03;;
12469;SDS011;36499;46.484;13.832;2024-03-02T02:10:13;4.17;;;3.10;;
12469;SDS011;36499;46.484;13.832;2024-03-02T02:12:41;4.17;;;2.87;;
12469;SDS011;36499;46.484;13.832;2024-03-02T02:15:23;5.97;;;2.77;;
12469;SDS011;36499;46.484;13.832;2024-03-02T02:17:53;7.97;;;2.70;;
12469;SDS011;36499;46.484;13.832;2024-03-02T02:20:20;5.00;;;2.83;;
12469;SDS011;36499;46.484;13.832;2024-03-02T02:22:58;4.83;;;2.70;;
12469;SDS011;36499;46.484;13.832;2024-03-02T02:25:26;4.73;;;2.93;;
12469;SDS011;36499;46.484;13.832;2024-03-02T02:27:53;8.07;;;2.80;;
12469;SDS011;36499;46.484;13.832;2024-03-02T02:30:21;3.60;;;2.30;;
12469;SDS011;36499;46.484;13.832;2024-03-02T02:32:48;3.47;;;2.17;;
12469;SDS011;36499;46.484;13.832;2024-03-02T02:35:15;4.47;;;2.20;;
12469;SDS011;36499;46.484;13.832;2024-03-02T02:37:42;3.90;;;1.93;;
12469;SDS011;36499;46.484;13.832;2024-03-02T02:40:12;3.87;;;2.03;;
12469;SDS011;36499;46.484;13.832;2024-03-02T02:42:40;4.53;;;2.27;;
12469;SDS011;36499;46.484;13.832;2024-03-02T02:45:07;3.50;;;2.00;;
12469;SDS011;36499;46.484;13.832;2024-03-02T02:47:34;2.17;;;1.97;;
12469;SDS011;36499;46.484;13.832;2024-03-02T02:50:01;4.23;;;2.03;;
12469;SDS011;36499;46.484;13.832;2024-03-02T02:52:31;4.40;;;1.90;;
12469;SDS011;36499;46.484;13.832;2024-03-02T02:55:01;4.37;;;2.10;;
12469;SDS011;36499;46.484;13.832;2024-03-02T02:57:30;6.70;;;1.80;;
12469;SDS011;36499;46.484;13.832;2024-03-02T03:00:00;4.23;;;1.93;;
12469;SDS011;36499;46.484;13.832;2024-03-02T03:02:30;7.03;;;2.73;;
12469;SDS011;36499;46.484;13.832;2024-03-02T03:04:57;4.63;;;2.00;;
12469;SDS011;36499;46.484;13.832;2024-03-02T03:07:24;3.40;;;1.60;;
12469;SDS011;36499;46.484;13.832;2024-03-02T03:09:51;3.73;;;1.60;;
12469;SDS011;36499;46.484;13.832;2024-03-02T03:12:18;5.03;;;1.80;;
12469;SDS011;36499;46.484;13.832;2024-03-02T03:14:46;2.83;;;1.60;;
12469;SDS011;36499;46.484;13.832;2024-03-02T03:17:13;3.53;;;1.70;;
12469;SDS011;36499;46.484;13.832;2024-03-02T03:19:40;3.87;;;2.03;;
12469;SDS011;36499;46.484;13.832;2024-03-02T03:22:07;2.53;;;1.50;;
12469;SDS011;36499;46.484;13.832;2024-03-02T03:24:34;7.37;;;2.03;;
12469;SDS011;36499;46.484;13.832;2024-03-02T03:27:00;5.17;;;1.90;;
12469;SDS011;36499;46.484;13.832;2024-03-02T03:29:27;2.90;;;1.80;;
12469;SDS011;36499;46.484;13.832;2024-03-02T03:31:56;3.60;;;1.77;;
12469;SDS011;36499;46.484;13.832;2024-03-02T03:34:22;2.33;;;2.10;;
12469;SDS011;36499;46.484;13.832;2024-03-02T03:36:49;5.33;;;2.17;;
12469;SDS011;36499;46.484;13.832;2024-03-02T03:39:16;2.23;;;1.60;;
12469;SDS011;36499;46.484;13.832;2024-03-02T03:41:43;2.67;;;1.70;;
12469;SDS011;36499;46.484;13.832;2024-03-02T03:44:10;2.33;;;1.67;;
12469;SDS011;36499;46.484;13.832;2024-03-02T03:46:37;2.10;;;1.87;;
12469;SDS011;36499;46.484;13.832;2024-03-02T03:49:05;2.73;;;1.90;;
12469;SDS011;36499;46.484;13.832;2024-03-02T03:51:32;1.87;;;1.50;;
12469;SDS011;36499;46.484;13.832;2024-03-02T03:54:00;3.97;;;1.80;;
12469;SDS011;36499;46.484;13.832;2024-03-02T03:56:27;3.97;;;1.93;;
12469;SDS011;36499;46.484;13.832;2024-03-02T03:58:54;4.77;;;2.13;;
12469;SDS011;36499;46.484;13.832;2024-03-02T04:01:21;2.47;;;1.60;;
12469;SDS011;36499;46.484;13.832;2024-03-02T04:03:48;5.00;;;2.13;;
12469;SDS011;36499;46.484;13.832;2024-03-02T04:06:16;4.83;;;2.30;;
12469;SDS011;36499;46.484;13.832;2024-03-02T04:08:43;2.87;;;2.33;;
12469;SDS011;36499;46.484;13.832;2024-03-02T04:11:10;7.37;;;4.17;;
12469;SDS011;36499;46.484;13.832;2024-03-02T04:13:37;3.80;;;2.10;;
12469;SDS011;36499;46.484;13.832;2024-03-02T04:16:04;3.60;;;2.03;;
12469;SDS011;36499;46.484;13.832;2024-03-02T04:18:31;3.47;;;2.00;;
12469;SDS011;36499;46.484;13.832;2024-03-02T04:20:57;2.70;;;1.70;;
12469;SDS011;36499;46.484;13.832;2024-03-02T04:23:26;4.27;;;1.90;;
12469;SDS011;36499;46.484;13.832;2024-03-02T04:25:52;8.67;;;2.00;;
12469;SDS011;36499;46.484;13.832;2024-03-02T04:28:19;3.33;;;1.97;;
12469;SDS011;36499;46.484;13.832;2024-03-02T04:30:46;3.70;;;1.80;;
12469;SDS011;36499;46.484;13.832;2024-03-02T04:33:17;4.30;;;2.00;;
12469;SDS011;36499;46.484;13.832;2024-03-02T04:35:46;2.43;;;1.70;;
12469;SDS011;36499;46.484;13.832;2024-03-02T04:38:13;2.30;;;1.80;;
12469;SDS011;36499;46.484;13.832;2024-03-02T04:40:41;2.37;;;1.90;;
12469;SDS011;36499;46.484;13.832;2024-03-02T04:43:09;5.70;;;1.90;;
12469;SDS011;36499;46.484;13.832;2024-03-02T04:45:42;3.67;;;2.00;;
12469;SDS011;36499;46.484;13.832;2024-03-02T04:48:09;4.07;;;1.87;;
12469;SDS011;36499;46.484;13.832;2024-03-02T04:50:36;4.33;;;2.00;;
12469;SDS011;36499;46.484;13.832;2024-03-02T04:53:03;2.37;;;1.77;;
12469;SDS011;36499;46.484;13.832;2024-03-02T04:55:30;7.77;;;2.00;;
12469;SDS011;36499;46.484;13.832;2024-03-02T04:58:24;2.40;;;1.73;;
12469;SDS011;36499;46.484;13.832;2024-03-02T05:00:51;5.17;;;1.80;;
12469;SDS011;36499;46.484;13.832;2024-03-02T05:03:18;4.23;;;1.63;;
12469;SDS011;36499;46.484;13.832;2024-03-02T05:05:45;2.43;;;1.50;;
12469;SDS011;36499;46.484;13.832;2024-03-02T05:08:13;2.37;;;1.70;;
12469;SDS011;36499;46.484;13.832;2024-03-02T05:10:42;1.70;;;1.60;;
12469;SDS011;36499;46.484;13.832;2024-03-02T05:13:10;2.83;;;1.70;;
12469;SDS011;36499;46.484;13.832;2024-03-02T05:15:38;3.10;;;1.73;;
12469;SDS011;36499;46.484;13.832;2024-03-02T05:18:05;2.27;;;1.80;;
12469;SDS011;36499;46.484;13.832;2024-03-02T05:20:32;4.50;;;1.97;;
12469;SDS011;36499;46.484;13.832;2024-03-02T05:22:59;5.43;;;1.90;;
12469;SDS011;36499;46.484;13.832;2024-03-02T05:25:26;4.97;;;2.17;;
12469;SDS011;36499;46.484;13.832;2024-03-02T05:27:53;9.70;;;2.40;;
12469;SDS011;36499;46.484;13.832;2024-03-02T05:30:21;2.97;;;1.90;;
12469;SDS011;36499;46.484;13.832;2024-03-02T05:32:49;4.60;;;2.50;;
12469;SDS011;36499;46.484;13.832;2024-03-02T05:35:16;6.37;;;2.53;;
12469;SDS011;36499;46.484;13.832;2024-03-02T05:37:43;3.17;;;2.30;;
12469;SDS011;36499;46.484;13.832;2024-03-02T05:40:10;4.23;;;2.80;;
12469;SDS011;36499;46.484;13.832;2024-03-02T05:42:38;4.53;;;2.90;;
12469;SDS011;36499;46.484;13.832;2024-03-02T05:45:06;4.83;;;2.50;;
12469;SDS011;36499;46.484;13.832;2024-03-02T05:47:33;3.20;;;2.80;;
12469;SDS011;36499;46.484;13.832;2024-03-02T05:50:02;7.60;;;3.33;;
12469;SDS011;36499;46.484;13.832;2024-03-02T05:52:30;6.27;;;2.70;;
12469;SDS011;36499;46.484;13.832;2024-03-02T05:54:56;4.03;;;2.30;;
12469;SDS011;36499;46.484;13.832;2024-03-02T05:57:24;3.63;;;2.23;;
12469;SDS011;36499;46.484;13.832;2024-03-02T06:00:10;2.50;;;1.87;;
12469;SDS011;36499;46.484;13.832;2024-03-02T06:02:39;3.10;;;1.97;;
12469;SDS011;36499;46.484;13.832;2024-03-02T06:05:07;3.73;;;2.57;;
12469;SDS011;36499;46.484;13.832;2024-03-02T06:07:34;5.33;;;2.63;;
12469;SDS011;36499;46.484;13.832;2024-03-02T06:10:01;3.93;;;3.27;;
12469;SDS011;36499;46.484;13.832;2024-03-02T06:12:28;4.23;;;3.30;;
12469;SDS011;36499;46.484;13.832;2024-03-02T06:14:57;4.20;;;3.80;;
12469;SDS011;36499;46.484;13.832;2024-03-02T06:17:24;4.30;;;3.73;;
12469;SDS011;36499;46.484;13.832;2024-03-02T06:19:51;4.47;;;2.67;;
12469;SDS011;36499;46.484;13.832;2024-03-02T06:22:19;12.67;;;8.30;;
12469;SDS011;36499;46.484;13.832;2024-03-02T06:24:46;37.57;;;24.37;;
12469;SDS011;36499;46.484;13.832;2024-03-02T06:27:13;60.87;;;39.67;;
12469;SDS011;36499;46.484;13.832;2024-03-02T06:29:40;18.43;;;13.13;;
12469;SDS011;36499;46.484;13.832;2024-03-02T06:32:07;5.90;;;4.67;;
12469;SDS011;36499;46.484;13.832;2024-03-02T06:34:34;11.27;;;6.10;;
12469;SDS011;36499;46.484;13.832;2024-03-02T06:37:00;8.37;;;6.40;;
12469;SDS011;36499;46.484;13.832;2024-03-02T06:39:29;7.47;;;5.23;;
12469;SDS011;36499;46.484;13.832;2024-03-02T06:41:56;5.27;;;3.17;;
12469;SDS011;36499;46.484;13.832;2024-03-02T06:44:23;3.67;;;2.13;;
12469;SDS011;36499;46.484;13.832;2024-03-02T06:46:50;3.33;;;2.80;;
12469;SDS011;36499;46.484;13.832;2024-03-02T06:49:16;4.27;;;2.63;;
12469;SDS011;36499;46.484;13.832;2024-03-02T06:51:43;4.30;;;2.17;;
12469;SDS011;36499;46.484;13.832;2024-03-02T06:54:10;3.57;;;2.20;;
12469;SDS011;36499;46.484;13.832;2024-03-02T06:56:38;1.97;;;1.67;;
12469;SDS011;36499;46.484;13.832;2024-03-02T06:59:05;1.63;;;1.50;;
12469;SDS011;36499;46.484;13.832;2024-03-02T07:01:32;2.33;;;1.70;;
12469;SDS011;36499;46.484;13.832;2024-03-02T07:03:59;2.33;;;1.97;;
12469;SDS011;36499;46.484;13.832;2024-03-02T07:06:25;3.90;;;2.10;;
12469;SDS011;36499;46.484;13.832;2024-03-02T07:08:52;2.37;;;2.10;;
12469;SDS011;36499;46.484;13.832;2024-03-02T07:11:19;2.00;;;1.60;;
12469;SDS011;36499;46.484;13.832;2024-03-02T07:13:47;2.77;;;2.27;;
12469;SDS011;36499;46.484;13.832;2024-03-02T07:16:14;2.07;;;1.83;;
12469;SDS011;36499;46.484;13.832;2024-03-02T07:18:58;2.70;;;1.97;;
12469;SDS011;36499;46.484;13.832;2024-03-02T07:24:15;4.27;;;2.30;;
12469;SDS011;36499;46.484;13.832;2024-03-02T07:26:42;4.73;;;2.03;;
12469;SDS011;36499;46.484;13.832;2024-03-02T07:29:10;6.17;;;2.17;;
12469;SDS011;36499;46.484;13.832;2024-03-02T07:31:37;2.63;;;1.87;;
12469;SDS011;36499;46.484;13.832;2024-03-02T07:34:04;3.57;;;2.80;;
12469;SDS011;36499;46.484;13.832;2024-03-02T07:36:31;36.33;;;18.87;;
12469;SDS011;36499;46.484;13.832;2024-03-02T07:39:16;31.47;;;17.37;;
12469;SDS011;36499;46.484;13.832;2024-03-02T07:41:44;16.80;;;8.57;;
12469;SDS011;36499;46.484;13.832;2024-03-02T07:44:13;7.77;;;4.40;;
12469;SDS011;36499;46.484;13.832;2024-03-02T07:53:24;7.97;;;4.63;;
12469;SDS011;36499;46.484;13.832;2024-03-02T07:55:51;9.00;;;6.60;;
12469;SDS011;36499;46.484;13.832;2024-03-02T07:58:18;4.00;;;3.40;;
12469;SDS011;36499;46.484;13.832;2024-03-02T08:00:46;4.73;;;3.10;;
12469;SDS011;36499;46.484;13.832;2024-03-02T08:03:13;9.40;;;5.07;;
12469;SDS011;36499;46.484;13.832;2024-03-02T08:05:40;15.37;;;9.80;;
12469;SDS011;36499;46.484;13.832;2024-03-02T08:08:07;7.87;;;4.00;;
12469;SDS011;36499;46.484;13.832;2024-03-02T08:10:37;7.23;;;4.03;;
12469;SDS011;36499;46.484;13.832;2024-03-02T08:13:04;5.03;;;3.07;;
12469;SDS011;36499;46.484;13.832;2024-03-02T08:15:31;3.03;;;2.40;;
12469;SDS011;36499;46.484;13.832;2024-03-02T08:17:59;4.67;;;2.93;;
12469;SDS011;36499;46.484;13.832;2024-03-02T08:20:26;4.23;;;2.80;;
12469;SDS011;36499;46.484;13.832;2024-03-02T08:22:54;4.07;;;2.57;;
12469;SDS011;36499;46.484;13.832;2024-03-02T08:25:21;3.40;;;2.90;;
12469;SDS011;36499;46.484;13.832;2024-03-02T08:27:48;3.43;;;2.30;;
12469;SDS011;36499;46.484;13.832;2024-03-02T08:30:15;2.77;;;2.50;;
12469;SDS011;36499;46.484;13.832;2024-03-02T08:32:43;3.23;;;2.90;;
12469;SDS011;36499;46.484;13.832;2024-03-02T08:35:11;4.33;;;2.43;;
12469;SDS011;36499;46.484;13.832;2024-03-02T08:37:39;3.60;;;2.70;;
12469;SDS011;36499;46.484;13.832;2024-03-02T08:40:06;3.13;;;2.77;;
12469;SDS011;36499;46.484;13.832;2024-03-02T08:42:34;4.73;;;2.60;;
12469;SDS011;36499;46.484;13.832;2024-03-02T08:45:01;4.67;;;2.60;;
12469;SDS011;36499;46.484;13.832;2024-03-02T08:47:28;3.90;;;2.90;;
12469;SDS011;36499;46.484;13.832;2024-03-02T08:49:55;3.50;;;2.77;;
12469;SDS011;36499;46.484;13.832;2024-03-02T08:52:23;4.50;;;2.80;;
12469;SDS011;36499;46.484;13.832;2024-03-02T08:54:50;3.00;;;2.27;;
12469;SDS011;36499;46.484;13.832;2024-03-02T08:57:17;7.20;;;2.87;;
12469;SDS011;36499;46.484;13.832;2024-03-02T08:59:44;3.97;;;2.57;;
12469;SDS011;36499;46.484;13.832;2024-03-02T09:02:11;5.60;;;2.80;;
12469;SDS011;36499;46.484;13.832;2024-03-02T09:04:37;5.07;;;2.57;;
12469;SDS011;36499;46.484;13.832;2024-03-02T09:07:04;4.47;;;2.80;;
12469;SDS011;36499;46.484;13.832;2024-03-02T09:09:33;5.77;;;2.53;;
12469;SDS011;36499;46.484;13.832;2024-03-02T09:12:00;5.37;;;2.90;;
12469;SDS011;36499;46.484;13.832;2024-03-02T09:14:29;4.60;;;3.00;;
12469;SDS011;36499;46.484;13.832;2024-03-02T09:16:58;5.60;;;3.20;;
12469;SDS011;36499;46.484;13.832;2024-03-02T09:19:25;6.80;;;3.13;;
12469;SDS011;36499;46.484;13.832;2024-03-02T09:21:52;4.50;;;2.80;;
12469;SDS011;36499;46.484;13.832;2024-03-02T09:24:20;6.80;;;2.90;;
12469;SDS011;36499;46.484;13.832;2024-03-02T09:26:49;8.20;;;2.90;;
12469;SDS011;36499;46.484;13.832;2024-03-02T09:29:15;4.97;;;3.10;;
12469;SDS011;36499;46.484;13.832;2024-03-02T09:31:42;6.97;;;3.23;;
12469;SDS011;36499;46.484;13.832;2024-03-02T09:34:09;7.93;;;3.77;;
12469;SDS011;36499;46.484;13.832;2024-03-02T09:36:36;5.97;;;3.90;;
12469;SDS011;36499;46.484;13.832;2024-03-02T09:39:03;5.40;;;3.53;;
12469;SDS011;36499;46.484;13.832;2024-03-02T09:41:30;6.53;;;4.47;;
12469;SDS011;36499;46.484;13.832;2024-03-02T09:43:58;4.50;;;3.50;;
12469;SDS011;36499;46.484;13.832;2024-03-02T09:46:26;7.00;;;4.20;;
12469;SDS011;36499;46.484;13.832;2024-03-02T09:48:53;6.87;;;4.27;;
12469;SDS011;36499;46.484;13.832;2024-03-02T09:51:20;8.20;;;4.40;;
12469;SDS011;36499;46.484;13.832;2024-03-02T09:53:47;7.50;;;4.57;;
12469;SDS011;36499;46.484;13.832;2024-03-02T09:56:14;6.07;;;4.40;;
12469;SDS011;36499;46.484;13.832;2024-03-02T09:58:43;8.77;;;4.77;;
12469;SDS011;36499;46.484;13.832;2024-03-02T10:01:11;6.03;;;4.40;;
12469;SDS011;36499;46.484;13.832;2024-03-02T10:03:38;6.53;;;4.53;;
12469;SDS011;36499;46.484;13.832;2024-03-02T10:06:21;9.10;;;5.30;;
12469;SDS011;36499;46.484;13.832;2024-03-02T10:08:48;7.73;;;4.47;;
12469;SDS011;36499;46.484;13.832;2024-03-02T10:11:25;7.13;;;4.47;;
12469;SDS011;36499;46.484;13.832;2024-03-02T10:14:06;10.87;;;5.00;;
12469;SDS011;36499;46.484;13.832;2024-03-02T10:16:36;10.00;;;5.17;;
12469;SDS011;36499;46.484;13.832;2024-03-02T10:19:16;7.17;;;4.80;;
12469;SDS011;36499;46.484;13.832;2024-03-02T10:21:44;29.43;;;20.77;;
12469;SDS011;36499;46.484;13.832;2024-03-02T10:24:11;94.80;;;68.17;;
12469;SDS011;36499;46.484;13.832;2024-03-02T10:26:38;54.50;;;43.00;;
12469;SDS011;36499;46.484;13.832;2024-03-02T10:29:07;12.00;;;9.67;;
12469;SDS011;36499;46.484;13.832;2024-03-02T10:31:36;13.83;;;9.30;;
12469;SDS011;36499;46.484;13.832;2024-03-02T10:34:04;8.03;;;6.10;;
12469;SDS011;36499;46.484;13.832;2024-03-02T10:36:31;10.20;;;5.37;;
12469;SDS011;36499;46.484;13.832;2024-03-02T10:39:01;8.10;;;5.13;;
12469;SDS011;36499;46.484;13.832;2024-03-02T10:41:29;7.33;;;5.07;;
12469;SDS011;36499;46.484;13.832;2024-03-02T10:43:59;7.93;;;5.33;;
12469;SDS011;36499;46.484;13.832;2024-03-02T10:46:28;11.97;;;5.77;;
12469;SDS011;36499;46.484;13.832;2024-03-02T10:48:57;9.50;;;4.70;;
12469;SDS011;36499;46.484;13.832;2024-03-02T10:51:24;9.90;;;5.57;;
12469;SDS011;36499;46.484;13.832;2024-03-02T10:53:52;10.57;;;6.33;;
12469;SDS011;36499;46.484;13.832;2024-03-02T10:56:21;11.03;;;6.70;;
12469;SDS011;36499;46.484;13.832;2024-03-02T10:58:55;17.43;;;8.70;;
12469;SDS011;36499;46.484;13.832;2024-03-02T11:01:29;24.13;;;13.67;;
12469;SDS011;36499;46.484;13.832;2024-03-02T11:03:59;9.23;;;5.93;;
12469;SDS011;36499;46.484;13.832;2024-03-02T11:06:30;13.53;;;6.47;;
12469;SDS011;36499;46.484;13.832;2024-03-02T11:09:00;11.80;;;6.13;;
12469;SDS011;36499;46.484;13.832;2024-03-02T11:11:35;9.70;;;5.37;;
12469;SDS011;36499;46.484;13.832;2024-03-02T11:14:07;7.90;;;4.87;;
12469;SDS011;36499;46.484;13.832;2024-03-02T11:16:37;8.87;;;6.23;;
12469;SDS011;36499;46.484;13.832;2024-03-02T11:19:08;10.00;;;5.07;;
12469;SDS011;36499;46.484;13.832;2024-03-02T11:21:38;8.57;;;5.00;;
12469;SDS011;36499;46.484;13.832;2024-03-02T11:27:00;8.20;;;4.40;;
12469;SDS011;36499;46.484;13.832;2024-03-02T11:32:13;8.83;;;4.93;;
12469;SDS011;36499;46.484;13.832;2024-03-02T11:34:44;8.87;;;5.13;;
12469;SDS011;36499;46.484;13.832;2024-03-02T11:37:13;10.43;;;5.17;;
12469;SDS011;36499;46.484;13.832;2024-03-02T11:39:41;7.30;;;5.47;;
12469;SDS011;36499;46.484;13.832;2024-03-02T11:42:09;6.70;;;4.57;;
12469;SDS011;36499;46.484;13.832;2024-03-02T11:44:39;9.93;;;5.40;;
12469;SDS011;36499;46.484;13.832;2024-03-02T11:47:10;8.00;;;5.23;;
12469;SDS011;36499;46.484;13.832;2024-03-02T11:49:40;9.17;;;4.90;;
12469;SDS011;36499;46.484;13.832;2024-03-02T11:52:09;6.73;;;4.63;;
12469;SDS011;36499;46.484;13.832;2024-03-02T11:54:37;9.80;;;5.23;;
12469;SDS011;36499;46.484;13.832;2024-03-02T11:57:06;7.53;;;5.03;;
12469;SDS011;36499;46.484;13.832;2024-03-02T11:59:33;7.03;;;4.87;;
12469;SDS011;36499;46.484;13.832;2024-03-02T12:02:00;6.30;;;4.83;;
12469;SDS011;36499;46.484;13.832;2024-03-02T12:04:27;7.67;;;4.93;;
12469;SDS011;36499;46.484;13.832;2024-03-02T12:06:56;8.03;;;5.13;;
12469;SDS011;36499;46.484;13.832;2024-03-02T12:09:26;7.83;;;5.27;;
12469;SDS011;36499;46.484;13.832;2024-03-02T12:12:03;7.37;;;4.63;;
12469;SDS011;36499;46.484;13.832;2024-03-02T12:14:31;6.13;;;4.73;;
12469;SDS011;36499;46.484;13.832;2024-03-02T12:16:59;7.17;;;4.57;;
12469;SDS011;36499;46.484;13.832;2024-03-02T12:19:26;8.07;;;5.47;;
12469;SDS011;36499;46.484;13.832;2024-03-02T12:21:55;7.07;;;5.13;;
12469;SDS011;36499;46.484;13.832;2024-03-02T12:24:22;9.20;;;5.10;;
12469;SDS011;36499;46.484;13.832;2024-03-02T12:26:51;10.57;;;6.20;;
12469;SDS011;36499;46.484;13.832;2024-03-02T12:29:19;9.47;;;6.30;;
12469;SDS011;36499;46.484;13.832;2024-03-02T12:31:47;11.27;;;5.20;;
12469;SDS011;36499;46.484;13.832;2024-03-02T12:34:15;7.57;;;5.73;;
12469;SDS011;36499;46.484;13.832;2024-03-02T12:36:43;10.13;;;6.30;;
12469;SDS011;36499;46.484;13.832;2024-03-02T12:39:12;7.53;;;5.10;;
12469;SDS011;36499;46.484;13.832;2024-03-02T12:41:40;7.07;;;5.40;;
12469;SDS011;36499;46.484;13.832;2024-03-02T12:44:09;7.23;;;4.67;;
12469;SDS011;36499;46.484;13.832;2024-03-02T12:46:36;5.23;;;4.60;;
12469;SDS011;36499;46.484;13.832;2024-03-02T12:49:07;7.13;;;4.47;;
12469;SDS011;36499;46.484;13.832;2024-03-02T12:51:36;7.10;;;4.53;;
12469;SDS011;36499;46.484;13.832;2024-03-02T12:54:05;8.40;;;6.07;;
12469;SDS011;36499;46.484;13.832;2024-03-02T12:56:32;6.93;;;5.23;;
12469;SDS011;36499;46.484;13.832;2024-03-02T12:59:00;5.83;;;4.00;;
12469;SDS011;36499;46.484;13.832;2024-03-02T13:01:28;7.33;;;4.73;;
12469;SDS011;36499;46.484;13.832;2024-03-02T13:03:55;8.07;;;3.83;;
12469;SDS011;36499;46.484;13.832;2024-03-02T13:06:24;5.73;;;3.97;;
12469;SDS011;36499;46.484;13.832;2024-03-02T13:08:53;6.87;;;4.83;;
12469;SDS011;36499;46.484;13.832;2024-03-02T13:11:20;7.40;;;4.77;;
12469;SDS011;36499;46.484;13.832;2024-03-02T13:13:48;5.20;;;4.10;;
12469;SDS011;36499;46.484;13.832;2024-03-02T13:16:15;10.53;;;8.73;;
12469;SDS011;36499;46.484;13.832;2024-03-02T13:18:45;7.13;;;5.43;;
12469;SDS011;36499;46.484;13.832;2024-03-02T13:21:12;6.80;;;4.63;;
12469;SDS011;36499;46.484;13.832;2024-03-02T13:23:39;7.23;;;4.37;;
12469;SDS011;36499;46.484;13.832;2024-03-02T13:26:06;4.93;;;3.90;;
12469;SDS011;36499;46.484;13.832;2024-03-02T13:28:35;5.83;;;3.83;;
12469;SDS011;36499;46.484;13.832;2024-03-02T13:31:03;5.13;;;3.97;;
12469;SDS011;36499;46.484;13.832;2024-03-02T13:33:31;8.10;;;5.70;;
12469;SDS011;36499;46.484;13.832;2024-03-02T13:35:59;8.90;;;5.33;;
12469;SDS011;36499;46.484;13.832;2024-03-02T13:38:26;7.47;;;5.60;;
12469;SDS011;36499;46.484;13.832;2024-03-02T13:40:53;7.80;;;5.80;;
12469;SDS011;36499;46.484;13.832;2024-03-02T13:43:20;10.00;;;6.93;;
12469;SDS011;36499;46.484;13.832;2024-03-02T13:45:48;5.80;;;4.03;;
12469;SDS011;36499;46.484;13.832;2024-03-02T13:48:17;7.23;;;4.00;;
12469;SDS011;36499;46.484;13.832;2024-03-02T13:50:44;5.23;;;4.40;;
12469;SDS011;36499;46.484;13.832;2024-03-02T13:53:12;5.43;;;4.40;;
12469;SDS011;36499;46.484;13.832;2024-03-02T13:55:39;7.57;;;5.00;;
12469;SDS011;36499;46.484;13.832;2024-03-02T13:58:07;5.23;;;3.77;;
12469;SDS011;36499;46.484;13.832;2024-03-02T14:00:34;5.03;;;3.47;;
12469;SDS011;36499;46.484;13.832;2024-03-02T14:03:02;3.70;;;3.07;;
12469;SDS011;36499;46.484;13.832;2024-03-02T14:05:30;4.07;;;3.30;;
12469;SDS011;36499;46.484;13.832;2024-03-02T14:07:57;6.70;;;3.87;;
12469;SDS011;36499;46.484;13.832;2024-03-02T14:10:26;6.10;;;4.50;;
12469;SDS011;36499;46.484;13.832;2024-03-02T14:12:54;5.37;;;3.57;;
12469;SDS011;36499;46.484;13.832;2024-03-02T14:15:21;6.87;;;5.37;;
12469;SDS011;36499;46.484;13.832;2024-03-02T14:17:48;6.20;;;2.80;;
12469;SDS011;36499;46.484;13.832;2024-03-02T14:20:15;4.90;;;3.53;;
12469;SDS011;36499;46.484;13.832;2024-03-02T14:22:46;6.07;;;4.20;;
12469;SDS011;36499;46.484;13.832;2024-03-02T14:25:14;6.93;;;4.60;;
12469;SDS011;36499;46.484;13.832;2024-03-02T14:27:42;5.17;;;3.30;;
12469;SDS011;36499;46.484;13.832;2024-03-02T14:30:10;5.67;;;3.40;;
12469;SDS011;36499;46.484;13.832;2024-03-02T14:32:38;4.23;;;3.00;;
12469;SDS011;36499;46.484;13.832;2024-03-02T14:35:05;3.50;;;2.67;;
12469;SDS011;36499;46.484;13.832;2024-03-02T14:37:35;3.70;;;3.20;;
12469;SDS011;36499;46.484;13.832;2024-03-02T14:40:02;5.10;;;3.23;;
12469;SDS011;36499;46.484;13.832;2024-03-02T14:42:31;4.43;;;3.43;;
12469;SDS011;36499;46.484;13.832;2024-03-02T14:45:00;4.20;;;2.80;;
12469;SDS011;36499;46.484;13.832;2024-03-02T14:47:29;3.30;;;2.93;;
12469;SDS011;36499;46.484;13.832;2024-03-02T14:49:56;3.50;;;3.03;;
12469;SDS011;36499;46.484;13.832;2024-03-02T14:52:23;4.57;;;3.13;;
12469;SDS011;36499;46.484;13.832;2024-03-02T14:54:50;4.67;;;2.80;;
12469;SDS011;36499;46.484;13.832;2024-03-02T14:57:16;4.53;;;2.83;;